Menard, Texas
Current Conditions -  °F | °C
As of 6:51 AM on Monday 20 Oct 2014 (Local Time) from KJCT Reporting Station
Haze Haze  
Wind Chill: 56°   Ceiling: 1500
Heat Index: 56°   Visibility: 5mi
Dew Point: 54°   Wind: 3mph
Humidity: 93%   Direction: 60°ENE
Pressure: 30.07"   Gusts: NA
Location:  30.92°N, 99.79°W
Report Text: KJCT 201151Z AUTO 06003KT 5SM BR BKN015 13/12 A3007 RMK AO2 SLP152 T01330122 10178 20128 53006
Loading
Personal Weather Stations






























Interactive Weather Map
Tropical Storm Tracking
New forecast layout! Learn more

10-Day Weather Forecast

Advertisements
Track Severe Weather on mobile